Temp: 14.2°C   Baro: 1023.0mb
  Wind: 2.9mph   Dir: ESE (102°)
  Rain: 0.0mm (0.0mm/hr)
  Sun: 0W/m2  Humidity: 75%

Historic data

Bath Spa Weather Station Historical Data
Daily Summary for March 19, 2023 Units:  Both    English   Metric
Daily Weekly Monthly Yearly Custom
  High: Low: Average:
Temperature: 52.3 °F /  11.3 °C 36.7 °F /  2.6 °C 45.3 °F /  7.4 °C
Dew Point: 43.2 °F /  6.2 °C 34.3 °F /  1.3 °C 39.2 °F /  4 °C
Humidity: 92% 66.4% 80%
Wind Speed: 10.1mph /  16.3km/h - 3.8mph /  6.1km/h
Wind Gust: 17mph /  27.4km/h - -
Wind- - West
Pressure: 30.12 in /  1019.9 hPa 29.89 in /  1012.1 hPa -
Precipitation: 0.00 in /  0 mm    
Historical Graphs
 
 
Tabular Data for March 19, 2023
Time Temperature Dew Point Pressure Wind Wind Speed Wind Gust Humidity Rainfall Rate (Hourly) solar
00:09 46.8 °F /  8.2 °C 43.2 °F /  6.2 °C 29.89in /  1012.1hPa WNW 2.9mph /  4.7km/h 6mph /  9.7km/h 87% 0.00in /  0mm 0 W/m2
00:14 46.8 °F /  8.2 °C 43.2 °F /  6.2 °C 29.89in /  1012.1hPa West 2.5mph /  4km/h 5mph /  8km/h 87% 0.00in /  0mm 0 W/m2
00:19 46.8 °F /  8.2 °C 43.2 °F /  6.2 °C 29.89in /  1012.1hPa WNW 2mph /  3.2km/h 6mph /  9.7km/h 87% 0.00in /  0mm 0 W/m2
00:24 46.8 °F /  8.2 °C 43.2 °F /  6.2 °C 29.90in /  1012.4hPa West 3.2mph /  5.1km/h 8mph /  12.9km/h 87% 0.00in /  0mm 0 W/m2
00:29 46.6 °F /  8.1 °C 42.8 °F /  6 °C 29.90in /  1012.4hPa West 3.7mph /  6km/h 7mph /  11.3km/h 86.6% 0.00in /  0mm 0 W/m2
00:34 46.6 °F /  8.1 °C 42.6 °F /  5.9 °C 29.91in /  1012.8hPa West 4mph /  6.4km/h 8mph /  12.9km/h 86% 0.00in /  0mm 0 W/m2
00:39 46.4 °F /  8 °C 42.4 °F /  5.8 °C 29.91in /  1012.8hPa WNW 4.3mph /  6.9km/h 8mph /  12.9km/h 86% 0.00in /  0mm 0 W/m2
00:44 46.2 °F /  7.9 °C 42.3 °F /  5.7 °C 29.91in /  1012.8hPa NW 3.2mph /  5.1km/h 8mph /  12.9km/h 86% 0.00in /  0mm 0 W/m2
00:49 46.1 °F /  7.8 °C 42.2 °F /  5.7 °C 29.91in /  1012.8hPa West 2.8mph /  4.5km/h 6mph /  9.7km/h 86% 0.00in /  0mm 0 W/m2
00:54 46 °F /  7.8 °C 41.7 °F /  5.4 °C 29.91in /  1012.8hPa WNW 4mph /  6.4km/h 6mph /  9.7km/h 85.2% 0.00in /  0mm 0 W/m2
00:59 45.9 °F /  7.7 °C 41.5 °F /  5.3 °C 29.91in /  1012.8hPa WNW 3.2mph /  5.1km/h 7mph /  11.3km/h 85% 0.00in /  0mm 0 W/m2
01:04 45.7 °F /  7.6 °C 41.4 °F /  5.2 °C 29.92in /  1013.1hPa WNW 2.1mph /  3.4km/h 6mph /  9.7km/h 85% 0.00in /  0mm 0 W/m2
01:09 45.6 °F /  7.6 °C 41.3 °F /  5.2 °C 29.92in /  1013.1hPa West 2.5mph /  4km/h 9mph /  14.5km/h 85% 0.00in /  0mm 0 W/m2
01:14 45.3 °F /  7.4 °C 40.9 °F /  4.9 °C 29.92in /  1013.1hPa WNW 5.9mph /  9.5km/h 11mph /  17.7km/h 84.4% 0.00in /  0mm 0 W/m2
01:19 45.1 °F /  7.3 °C 40.6 °F /  4.8 °C 29.92in /  1013.1hPa WNW 5.5mph /  8.9km/h 12mph /  19.3km/h 84% 0.00in /  0mm 0 W/m2
01:24 45 °F /  7.2 °C 40.5 °F /  4.7 °C 29.92in /  1013.1hPa WNW 6mph /  9.7km/h 11mph /  17.7km/h 84% 0.00in /  0mm 0 W/m2
01:29 44.8 °F /  7.1 °C 40.3 °F /  4.6 °C 29.92in /  1013.1hPa West 5.3mph /  8.5km/h 8mph /  12.9km/h 84% 0.00in /  0mm 0 W/m2
01:34 44.5 °F /  6.9 °C 40 °F /  4.4 °C 29.93in /  1013.4hPa WNW 3.2mph /  5.1km/h 7mph /  11.3km/h 84% 0.00in /  0mm 0 W/m2
01:39 44.3 °F /  6.8 °C 39.8 °F /  4.3 °C 29.93in /  1013.4hPa West 4.1mph /  6.6km/h 7mph /  11.3km/h 84% 0.00in /  0mm 0 W/m2
01:44 44.2 °F /  6.8 °C 39.7 °F /  4.3 °C 29.93in /  1013.4hPa West 5.4mph /  8.7km/h 9mph /  14.5km/h 84% 0.00in /  0mm 0 W/m2
01:49 44 °F /  6.7 °C 39.5 °F /  4.2 °C 29.93in /  1013.4hPa West 3.5mph /  5.6km/h 7mph /  11.3km/h 84% 0.00in /  0mm 0 W/m2
01:54 43.7 °F /  6.5 °C 39.2 °F /  4 °C 29.93in /  1013.4hPa West 2mph /  3.2km/h 4mph /  6.4km/h 84% 0.00in /  0mm 0 W/m2
01:59 43.4 °F /  6.3 °C 39.2 °F /  4 °C 29.93in /  1013.4hPa West 1.5mph /  2.4km/h 3mph /  4.8km/h 84.8% 0.00in /  0mm 0 W/m2
02:04 43.3 °F /  6.3 °C 39.1 °F /  3.9 °C 29.93in /  1013.4hPa West 1.5mph /  2.4km/h 4mph /  6.4km/h 85% 0.00in /  0mm 0 W/m2
02:09 42.9 °F /  6.1 °C 38.8 °F /  3.8 °C 29.93in /  1013.4hPa West 2.2mph /  3.5km/h 4mph /  6.4km/h 85% 0.00in /  0mm 0 W/m2
02:14 42.6 °F /  5.9 °C 38.5 °F /  3.6 °C 29.93in /  1013.4hPa West 2.2mph /  3.5km/h 4mph /  6.4km/h 85% 0.00in /  0mm 0 W/m2
02:19 42.4 °F /  5.8 °C 38.3 °F /  3.5 °C 29.93in /  1013.4hPa West 1.5mph /  2.4km/h 4mph /  6.4km/h 85% 0.00in /  0mm 0 W/m2
02:24 42.3 °F /  5.7 °C 38.3 °F /  3.5 °C 29.93in /  1013.4hPa West 1.2mph /  1.9km/h 3mph /  4.8km/h 86% 0.00in /  0mm 0 W/m2
02:29 42.1 °F /  5.6 °C 38.1 °F /  3.4 °C 29.93in /  1013.4hPa West 0.6mph /  1km/h 2mph /  3.2km/h 86% 0.00in /  0mm 0 W/m2
02:34 42.1 °F /  5.6 °C 38.1 °F /  3.4 °C 29.93in /  1013.4hPa Calm     86% 0.00in /  0mm 0 W/m2
02:39 41.9 °F /  5.5 °C 37.9 °F /  3.3 °C 29.93in /  1013.4hPa West 0.4mph /  0.6km/h 2mph /  3.2km/h 86% 0.00in /  0mm 0 W/m2
02:44 41.7 °F /  5.4 °C 37.8 °F /  3.2 °C 29.93in /  1013.4hPa West 0.5mph /  0.8km/h 2mph /  3.2km/h 86% 0.00in /  0mm 0 W/m2
02:49 41.4 °F /  5.2 °C 37.8 °F /  3.2 °C 29.93in /  1013.4hPa West 0.2mph /  0.3km/h 1mph /  1.6km/h 86.8% 0.00in /  0mm 0 W/m2
02:54 41.2 °F /  5.1 °C 37.6 °F /  3.1 °C 29.93in /  1013.4hPa West 1.2mph /  1.9km/h 3mph /  4.8km/h 87% 0.00in /  0mm 0 W/m2
02:59 40.8 °F /  4.9 °C 37.2 °F /  2.9 °C 29.93in /  1013.4hPa West 0.8mph /  1.3km/h 2mph /  3.2km/h 87% 0.00in /  0mm 0 W/m2
03:04 40.7 °F /  4.8 °C 37.1 °F /  2.8 °C 29.94in /  1013.8hPa West 0.5mph /  0.8km/h 2mph /  3.2km/h 87% 0.00in /  0mm 0 W/m2
03:09 40.6 °F /  4.8 °C 37 °F /  2.8 °C 29.94in /  1013.8hPa West 0.2mph /  0.3km/h 1mph /  1.6km/h 87% 0.00in /  0mm 0 W/m2
03:14 40.5 °F /  4.7 °C 37.1 °F /  2.8 °C 29.94in /  1013.8hPa Calm   1mph /  1.6km/h 87.8% 0.00in /  0mm 0 W/m2
03:19 40.4 °F /  4.7 °C 37.1 °F /  2.8 °C 29.95in /  1014.1hPa Calm     88% 0.00in /  0mm 0 W/m2
03:24 40 °F /  4.4 °C 36.8 °F /  2.7 °C 29.95in /  1014.1hPa West 0.2mph /  0.3km/h 1mph /  1.6km/h 88% 0.00in /  0mm 0 W/m2
03:29 39.8 °F /  4.3 °C 36.6 °F /  2.6 °C 29.95in /  1014.1hPa Calm     88% 0.00in /  0mm 0 W/m2
03:34 39.6 °F /  4.2 °C 36.4 °F /  2.4 °C 29.95in /  1014.1hPa Calm     88% 0.00in /  0mm 0 W/m2
03:39 39.5 °F /  4.2 °C 36.2 °F /  2.3 °C 29.95in /  1014.1hPa Calm     88% 0.00in /  0mm 0 W/m2
03:44 39.3 °F /  4.1 °C 36.2 °F /  2.3 °C 29.96in /  1014.4hPa Calm     88.6% 0.00in /  0mm 0 W/m2
03:49 39.1 °F /  3.9 °C 36.2 °F /  2.3 °C 29.96in /  1014.4hPa West 0.4mph /  0.6km/h 2mph /  3.2km/h 89% 0.00in /  0mm 0 W/m2
03:54 39 °F /  3.9 °C 36.1 °F /  2.3 °C 29.96in /  1014.4hPa West 1mph /  1.6km/h 2mph /  3.2km/h 89% 0.00in /  0mm 0 W/m2
03:59 38.9 °F /  3.8 °C 36 °F /  2.2 °C 29.96in /  1014.4hPa West 2mph /  3.2km/h 3mph /  4.8km/h 89% 0.00in /  0mm 0 W/m2
04:04 38.8 °F /  3.8 °C 36 °F /  2.2 °C 29.96in /  1014.4hPa West 0.5mph /  0.8km/h 2mph /  3.2km/h 89% 0.00in /  0mm 0 W/m2
04:09 38.8 °F /  3.8 °C 35.9 °F /  2.2 °C 29.96in /  1014.4hPa Calm   1mph /  1.6km/h 89% 0.00in /  0mm 0 W/m2
04:14 38.7 °F /  3.7 °C 35.8 °F /  2.1 °C 29.96in /  1014.4hPa Calm   1mph /  1.6km/h 89.2% 0.00in /  0mm 0 W/m2
04:19 38.7 °F /  3.7 °C 35.8 °F /  2.1 °C 29.96in /  1014.4hPa Calm   1mph /  1.6km/h 89.3% 0.00in /  0mm 0 W/m2
04:24 38.5 °F /  3.6 °C 35.8 °F /  2.1 °C 29.96in /  1014.4hPa West 0.2mph /  0.3km/h 1mph /  1.6km/h 90% 0.00in /  0mm 0 W/m2
04:29 38.4 °F /  3.6 °C 35.7 °F /  2.1 °C 29.96in /  1014.4hPa West 0.2mph /  0.3km/h 1mph /  1.6km/h 90% 0.00in /  0mm 0 W/m2
04:34 38.3 °F /  3.5 °C 35.6 °F /  2 °C 29.97in /  1014.8hPa West 1.2mph /  1.9km/h 2mph /  3.2km/h 90% 0.00in /  0mm 0 W/m2
04:39 38 °F /  3.3 °C 35.3 °F /  1.8 °C 29.97in /  1014.8hPa Calm   1mph /  1.6km/h 90% 0.00in /  0mm 0 W/m2
04:44 37.9 °F /  3.3 °C 35.2 °F /  1.8 °C 29.97in /  1014.8hPa West 0.2mph /  0.3km/h 1mph /  1.6km/h 90% 0.00in /  0mm 0 W/m2
04:49 37.9 °F /  3.3 °C 35.2 °F /  1.8 °C 29.97in /  1014.8hPa West 0.5mph /  0.8km/h 1mph /  1.6km/h 90% 0.00in /  0mm 0 W/m2
04:54 37.8 °F /  3.2 °C 35.1 °F /  1.7 °C 29.97in /  1014.8hPa West 0.5mph /  0.8km/h 2mph /  3.2km/h 90% 0.00in /  0mm 0 W/m2
04:59 37.8 °F /  3.2 °C 35.1 °F /  1.7 °C 29.98in /  1015.1hPa West 0.9mph /  1.4km/h 2mph /  3.2km/h 90% 0.00in /  0mm 0 W/m2
05:04 37.6 °F /  3.1 °C 34.9 °F /  1.6 °C 29.98in /  1015.1hPa West 0.2mph /  0.3km/h 1mph /  1.6km/h 90% 0.00in /  0mm 0 W/m2
05:09 37.6 °F /  3.1 °C 34.9 °F /  1.6 °C 29.98in /  1015.1hPa Calm     90% 0.00in /  0mm 0 W/m2
05:14 37.6 °F /  3.1 °C 34.9 °F /  1.6 °C 29.98in /  1015.1hPa West 0.7mph /  1.1km/h 2mph /  3.2km/h 90% 0.00in /  0mm 0 W/m2
05:19 37.2 °F /  2.9 °C 34.8 °F /  1.6 °C 29.98in /  1015.1hPa West 1.1mph /  1.8km/h 2mph /  3.2km/h 90.6% 0.00in /  0mm 0 W/m2
05:24 37.3 °F /  2.9 °C 35 °F /  1.7 °C 29.98in /  1015.1hPa West 0.7mph /  1.1km/h 2mph /  3.2km/h 91% 0.00in /  0mm 0 W/m2
05:29 37.3 °F /  2.9 °C 35 °F /  1.7 °C 29.99in /  1015.5hPa West 0.9mph /  1.4km/h 2mph /  3.2km/h 91% 0.00in /  0mm 0 W/m2
05:34 37.3 °F /  2.9 °C 35 °F /  1.7 °C 29.99in /  1015.5hPa West 0.2mph /  0.3km/h 2mph /  3.2km/h 91% 0.00in /  0mm 0 W/m2
05:39 37 °F /  2.8 °C 34.7 °F /  1.5 °C 29.99in /  1015.5hPa West 0.6mph /  1km/h 2mph /  3.2km/h 91% 0.00in /  0mm 0 W/m2
05:44 37 °F /  2.8 °C 34.7 °F /  1.5 °C 29.99in /  1015.5hPa West 0.5mph /  0.8km/h 2mph /  3.2km/h 91% 0.00in /  0mm 0 W/m2
05:49 37 °F /  2.8 °C 34.6 °F /  1.4 °C 30.00in /  1015.8hPa Calm   2mph /  3.2km/h 91% 0.00in /  0mm 0 W/m2
05:54 36.9 °F /  2.7 °C 34.5 °F /  1.4 °C 29.99in /  1015.5hPa West 0.2mph /  0.3km/h 2mph /  3.2km/h 91% 0.00in /  0mm 0 W/m2
05:59 36.9 °F /  2.7 °C 34.5 °F /  1.4 °C 30.00in /  1015.8hPa West 0.2mph /  0.3km/h 1mph /  1.6km/h 91% 0.00in /  0mm 0 W/m2
06:04 36.9 °F /  2.7 °C 34.6 °F /  1.4 °C 30.00in /  1015.8hPa Calm   1mph /  1.6km/h 91% 0.00in /  0mm 0 W/m2
06:09 36.9 °F /  2.7 °C 34.6 °F /  1.4 °C 30.00in /  1015.8hPa Calm     91% 0.00in /  0mm 0 W/m2
06:14 36.9 °F /  2.7 °C 34.5 °F /  1.4 °C 30.01in /  1016.1hPa Calm   1mph /  1.6km/h 91% 0.00in /  0mm 0 W/m2
06:19 36.9 °F /  2.7 °C 34.5 °F /  1.4 °C 30.01in /  1016.1hPa West 0.2mph /  0.3km/h 1mph /  1.6km/h 91% 0.00in /  0mm 5 W/m2
06:24 36.7 °F /  2.6 °C 34.3 °F /  1.3 °C 30.01in /  1016.1hPa Calm   1mph /  1.6km/h 91% 0.00in /  0mm 7 W/m2
06:29 36.7 °F /  2.6 °C 34.3 °F /  1.3 °C 30.01in /  1016.1hPa Calm     91% 0.00in /  0mm 12 W/m2
06:34 36.7 °F /  2.6 °C 34.5 °F /  1.4 °C 30.01in /  1016.1hPa West 1.4mph /  2.3km/h 3mph /  4.8km/h 92% 0.00in /  0mm 18 W/m2
06:39 36.9 °F /  2.7 °C 34.8 °F /  1.6 °C 30.01in /  1016.1hPa West 1.7mph /  2.7km/h 4mph /  6.4km/h 92% 0.00in /  0mm 19 W/m2
06:44 37.4 °F /  3 °C 35.2 °F /  1.8 °C 30.01in /  1016.1hPa West 1mph /  1.6km/h 4mph /  6.4km/h 92% 0.00in /  0mm 18 W/m2
06:49 37.7 °F /  3.2 °C 35.5 °F /  1.9 °C 30.01in /  1016.1hPa West 0.4mph /  0.6km/h 2mph /  3.2km/h 92% 0.00in /  0mm 18 W/m2
06:54 37.7 °F /  3.2 °C 35.5 °F /  1.9 °C 30.01in /  1016.1hPa West 1.3mph /  2.1km/h 3mph /  4.8km/h 92% 0.00in /  0mm 19 W/m2
06:59 37.6 °F /  3.1 °C 35.4 °F /  1.9 °C 30.02in /  1016.5hPa West 0.9mph /  1.4km/h 3mph /  4.8km/h 92% 0.00in /  0mm 21 W/m2
07:04 37.7 °F /  3.2 °C 35.6 °F /  2 °C 30.02in /  1016.5hPa West 1.6mph /  2.6km/h 5mph /  8km/h 92% 0.00in /  0mm 23 W/m2
07:09 38.3 °F /  3.5 °C 36.1 °F /  2.3 °C 30.02in /  1016.5hPa WNW 2.3mph /  3.7km/h 5mph /  8km/h 92% 0.00in /  0mm 25 W/m2
07:14 38.9 °F /  3.8 °C 36.7 °F /  2.6 °C 30.02in /  1016.5hPa WNW 1.9mph /  3.1km/h 4mph /  6.4km/h 92% 0.00in /  0mm 26 W/m2
07:19 39.4 °F /  4.1 °C 37.2 °F /  2.9 °C 30.02in /  1016.5hPa WNW 2.4mph /  3.9km/h 4mph /  6.4km/h 92% 0.00in /  0mm 28 W/m2
07:24 39.7 °F /  4.3 °C 37.6 °F /  3.1 °C 30.02in /  1016.5hPa WNW 1.2mph /  1.9km/h 4mph /  6.4km/h 92% 0.00in /  0mm 30 W/m2
07:29 40.2 °F /  4.6 °C 38 °F /  3.3 °C 30.03in /  1016.8hPa West 1.4mph /  2.3km/h 4mph /  6.4km/h 92% 0.00in /  0mm 33 W/m2
07:34 40.6 °F /  4.8 °C 38.4 °F /  3.6 °C 30.03in /  1016.8hPa West 3.8mph /  6.1km/h 6mph /  9.7km/h 92% 0.00in /  0mm 42 W/m2
07:39 40.6 °F /  4.8 °C 38.5 °F /  3.6 °C 30.03in /  1016.8hPa West 4.6mph /  7.4km/h 7mph /  11.3km/h 92% 0.00in /  0mm 54 W/m2
07:44 40.8 °F /  4.9 °C 38.7 °F /  3.7 °C 30.02in /  1016.5hPa West 5.3mph /  8.5km/h 8mph /  12.9km/h 92% 0.00in /  0mm 69 W/m2
07:49 41.2 °F /  5.1 °C 39 °F /  3.9 °C 30.03in /  1016.8hPa West 3.7mph /  6km/h 7mph /  11.3km/h 92% 0.00in /  0mm 86 W/m2
07:54 41.5 °F /  5.3 °C 39.4 °F /  4.1 °C 30.03in /  1016.8hPa West 3.7mph /  6km/h 6mph /  9.7km/h 92% 0.00in /  0mm 102 W/m2
07:59 42 °F /  5.6 °C 39.7 °F /  4.3 °C 30.03in /  1016.8hPa West 2mph /  3.2km/h 6mph /  9.7km/h 91.6% 0.00in /  0mm 120 W/m2
08:04 42.6 °F /  5.9 °C 40.1 °F /  4.5 °C 30.03in /  1016.8hPa WSW 2.5mph /  4km/h 6mph /  9.7km/h 91% 0.00in /  0mm 139 W/m2
08:09 43.1 °F /  6.2 °C 40.5 °F /  4.7 °C 30.03in /  1016.8hPa WSW 2.1mph /  3.4km/h 5mph /  8km/h 91% 0.00in /  0mm 153 W/m2
08:14 43.2 °F /  6.2 °C 40.6 °F /  4.8 °C 30.03in /  1016.8hPa West 3.5mph /  5.6km/h 7mph /  11.3km/h 90.6% 0.00in /  0mm 171 W/m2
08:19 43.2 °F /  6.2 °C 40.5 °F /  4.7 °C 30.03in /  1016.8hPa West 5.2mph /  8.4km/h 9mph /  14.5km/h 90% 0.00in /  0mm 186 W/m2
08:24 43.6 °F /  6.4 °C 40.6 °F /  4.8 °C 30.03in /  1016.8hPa West 4mph /  6.4km/h 8mph /  12.9km/h 89.2% 0.00in /  0mm 202 W/m2
08:29 44 °F /  6.7 °C 40.8 °F /  4.9 °C 30.04in /  1017.2hPa West 4.6mph /  7.4km/h 9mph /  14.5km/h 88.2% 0.00in /  0mm 220 W/m2
08:34 44.2 °F /  6.8 °C 40.5 °F /  4.7 °C 30.04in /  1017.2hPa WNW 6mph /  9.7km/h 8mph /  12.9km/h 86.8% 0.00in /  0mm 236 W/m2
08:39 44.5 °F /  6.9 °C 40.4 °F /  4.7 °C 30.04in /  1017.2hPa West 5.6mph /  9km/h 10mph /  16.1km/h 85.2% 0.00in /  0mm 251 W/m2
08:44 44.9 °F /  7.2 °C 40.2 °F /  4.6 °C 30.04in /  1017.2hPa WNW 4.1mph /  6.6km/h 9mph /  14.5km/h 83.6% 0.00in /  0mm 267 W/m2
08:49 45.1 °F /  7.3 °C 40 °F /  4.4 °C 30.04in /  1017.2hPa West 6mph /  9.7km/h 13mph /  20.9km/h 82.3% 0.00in /  0mm 281 W/m2
08:54 45.1 °F /  7.3 °C 39.7 °F /  4.3 °C 30.04in /  1017.2hPa WNW 5.3mph /  8.5km/h 13mph /  20.9km/h 81% 0.00in /  0mm 295 W/m2
08:59 45.7 °F /  7.6 °C 39.9 °F /  4.4 °C 30.04in /  1017.2hPa West 5.6mph /  9km/h 11mph /  17.7km/h 80.4% 0.00in /  0mm 315 W/m2
09:04 45.3 °F /  7.4 °C 39.4 °F /  4.1 °C 30.05in /  1017.5hPa West 8mph /  12.9km/h 14mph /  22.5km/h 79.4% 0.00in /  0mm 323 W/m2
09:09 45.5 °F /  7.5 °C 39.4 °F /  4.1 °C 30.05in /  1017.5hPa West 8mph /  12.9km/h 14mph /  22.5km/h 79% 0.00in /  0mm 346 W/m2
09:14 45.9 °F /  7.7 °C 39.4 °F /  4.1 °C 30.05in /  1017.5hPa West 6.8mph /  10.9km/h 14mph /  22.5km/h 78.2% 0.00in /  0mm 357 W/m2
09:19 45.9 °F /  7.7 °C 39.4 °F /  4.1 °C 30.05in /  1017.5hPa WNW 7.8mph /  12.6km/h 13mph /  20.9km/h 78% 0.00in /  0mm 373 W/m2
09:24 46 °F /  7.8 °C 39.4 °F /  4.1 °C 30.06in /  1017.8hPa WNW 7.8mph /  12.6km/h 14mph /  22.5km/h 77.4% 0.00in /  0mm 390 W/m2
09:29 46.2 °F /  7.9 °C 39.4 °F /  4.1 °C 30.06in /  1017.8hPa WNW 5.4mph /  8.7km/h 14mph /  22.5km/h 77% 0.00in /  0mm 406 W/m2
09:34 46.8 °F /  8.2 °C 39.7 °F /  4.3 °C 30.06in /  1017.8hPa NW 5.8mph /  9.3km/h 11mph /  17.7km/h 76.4% 0.00in /  0mm 420 W/m2
09:39 46.9 °F /  8.3 °C 39.7 °F /  4.3 °C 30.06in /  1017.8hPa WNW 7.8mph /  12.6km/h 12mph /  19.3km/h 76% 0.00in /  0mm 434 W/m2
09:44 47.1 °F /  8.4 °C 39.7 °F /  4.3 °C 30.06in /  1017.8hPa West 7.4mph /  11.9km/h 13mph /  20.9km/h 75.2% 0.00in /  0mm 446 W/m2
09:49 47.3 °F /  8.5 °C 39.7 °F /  4.3 °C 30.06in /  1017.8hPa West 5.4mph /  8.7km/h 13mph /  20.9km/h 75% 0.00in /  0mm 454 W/m2
09:54 47.7 °F /  8.7 °C 40.3 °F /  4.6 °C 30.06in /  1017.8hPa WSW 5.3mph /  8.5km/h 10mph /  16.1km/h 75.4% 0.00in /  0mm 476 W/m2
09:59 47.9 °F /  8.8 °C 40.4 °F /  4.7 °C 30.07in /  1018.2hPa West 6mph /  9.7km/h 17mph /  27.4km/h 75% 0.00in /  0mm 485 W/m2
10:04 47.7 °F /  8.7 °C 40.1 °F /  4.5 °C 30.06in /  1017.8hPa WNW 8mph /  12.9km/h 13mph /  20.9km/h 75% 0.00in /  0mm 543 W/m2
10:09 47.6 °F /  8.7 °C 40 °F /  4.4 °C 30.06in /  1017.8hPa WNW 5.8mph /  9.3km/h 12mph /  19.3km/h 75% 0.00in /  0mm 534 W/m2
10:14 48 °F /  8.9 °C 40.4 °F /  4.7 °C 30.06in /  1017.8hPa WNW 6.6mph /  10.6km/h 10mph /  16.1km/h 75% 0.00in /  0mm 385 W/m2
10:19 48.5 °F /  9.2 °C 40.5 °F /  4.7 °C 30.06in /  1017.8hPa West 3.7mph /  6km/h 10mph /  16.1km/h 74% 0.00in /  0mm 585 W/m2
10:24 48.3 °F /  9.1 °C 40.1 °F /  4.5 °C 30.06in /  1017.8hPa West 5.9mph /  9.5km/h 11mph /  17.7km/h 73.2% 0.00in /  0mm 689 W/m2
10:29 47.7 °F /  8.7 °C 39.4 °F /  4.1 °C 30.07in /  1018.2hPa West 6.9mph /  11.1km/h 12mph /  19.3km/h 73% 0.00in /  0mm 343 W/m2
10:34 48.4 °F /  9.1 °C 40.1 °F /  4.5 °C 30.07in /  1018.2hPa WSW 6.6mph /  10.6km/h 13mph /  20.9km/h 73% 0.00in /  0mm 689 W/m2
10:39 49.3 °F /  9.6 °C 40.8 °F /  4.9 °C 30.07in /  1018.2hPa WNW 5.1mph /  8.2km/h 12mph /  19.3km/h 72.4% 0.00in /  0mm 680 W/m2
10:44 49.5 °F /  9.7 °C 40.7 °F /  4.8 °C 30.07in /  1018.2hPa WNW 4.9mph /  7.9km/h 9mph /  14.5km/h 71.6% 0.00in /  0mm 677 W/m2
10:49 49.1 °F /  9.5 °C 40.4 °F /  4.7 °C 30.07in /  1018.2hPa WNW 7.5mph /  12.1km/h 11mph /  17.7km/h 71.8% 0.00in /  0mm 635 W/m2
10:54 49 °F /  9.4 °C 40 °F /  4.4 °C 30.07in /  1018.2hPa NW 6.8mph /  10.9km/h 13mph /  20.9km/h 71.2% 0.00in /  0mm 636 W/m2
10:59 49.1 °F /  9.5 °C 40.2 °F /  4.6 °C 30.07in /  1018.2hPa WNW 6.4mph /  10.3km/h 13mph /  20.9km/h 71.2% 0.00in /  0mm 647 W/m2
11:04 49.7 °F /  9.8 °C 40.7 °F /  4.8 °C 30.07in /  1018.2hPa WNW 5.1mph /  8.2km/h 12mph /  19.3km/h 71% 0.00in /  0mm 661 W/m2
11:09 49.6 °F /  9.8 °C 40.5 °F /  4.7 °C 30.07in /  1018.2hPa West 8.5mph /  13.7km/h 13mph /  20.9km/h 70.8% 0.00in /  0mm 703 W/m2
11:14 49.7 °F /  9.8 °C 40.2 °F /  4.6 °C 30.07in /  1018.2hPa West 7.4mph /  11.9km/h 13mph /  20.9km/h 69.6% 0.00in /  0mm 816 W/m2
11:19 50 °F /  10 °C 40.5 °F /  4.7 °C 30.07in /  1018.2hPa WNW 4.7mph /  7.6km/h 12mph /  19.3km/h 69.4% 0.00in /  0mm 816 W/m2
11:24 50.7 °F /  10.4 °C 41.2 °F /  5.1 °C 30.07in /  1018.2hPa West 7.4mph /  11.9km/h 12mph /  19.3km/h 69.4% 0.00in /  0mm 664 W/m2
11:29 50 °F /  10 °C 40.2 °F /  4.6 °C 30.07in /  1018.2hPa WNW 5.6mph /  9km/h 12mph /  19.3km/h 68.8% 0.00in /  0mm 580 W/m2
11:34 49.7 °F /  9.8 °C 39.8 °F /  4.3 °C 30.08in /  1018.5hPa NW 6mph /  9.7km/h 11mph /  17.7km/h 68.2% 0.00in /  0mm 710 W/m2
11:39 50.6 °F /  10.3 °C 40.3 °F /  4.6 °C 30.08in /  1018.5hPa WNW 7.2mph /  11.6km/h 12mph /  19.3km/h 67.8% 0.00in /  0mm 761 W/m2
11:44 50.2 °F /  10.1 °C 40.3 °F /  4.6 °C 30.08in /  1018.5hPa NW 7.4mph /  11.9km/h 14mph /  22.5km/h 68.4% 0.00in /  0mm 211 W/m2
11:49 50 °F /  10 °C 40.1 °F /  4.5 °C 30.08in /  1018.5hPa NW 6mph /  9.7km/h 11mph /  17.7km/h 68.6% 0.00in /  0mm 686 W/m2
11:54 50.7 °F /  10.4 °C 40.2 °F /  4.6 °C 30.08in /  1018.5hPa NW 4.5mph /  7.2km/h 13mph /  20.9km/h 67.2% 0.00in /  0mm 770 W/m2
11:59 50.6 °F /  10.3 °C 40.3 °F /  4.6 °C 30.08in /  1018.5hPa West 5.6mph /  9km/h 9mph /  14.5km/h 67.6% 0.00in /  0mm 687 W/m2
12:04 50.4 °F /  10.2 °C 40.2 °F /  4.6 °C 30.08in /  1018.5hPa WSW 7mph /  11.3km/h 11mph /  17.7km/h 67.8% 0.00in /  0mm 374 W/m2
12:09 50.3 °F /  10.2 °C 39.9 °F /  4.4 °C 30.07in /  1018.2hPa WSW 4.9mph /  7.9km/h 12mph /  19.3km/h 67.4% 0.00in /  0mm 332 W/m2
12:14 50 °F /  10 °C 40.3 °F /  4.6 °C 30.07in /  1018.2hPa WSW 6.8mph /  10.9km/h 14mph /  22.5km/h 69% 0.00in /  0mm 283 W/m2
12:19 50 °F /  10 °C 40.5 °F /  4.7 °C 30.07in /  1018.2hPa WSW 5.1mph /  8.2km/h 13mph /  20.9km/h 69.8% 0.00in /  0mm 265 W/m2
12:24 50 °F /  10 °C 40.5 °F /  4.7 °C 30.07in /  1018.2hPa WSW 4.1mph /  6.6km/h 9mph /  14.5km/h 69.8% 0.00in /  0mm 265 W/m2
12:29 50.3 °F /  10.2 °C 40.9 °F /  4.9 °C 30.07in /  1018.2hPa West 5.7mph /  9.2km/h 9mph /  14.5km/h 70% 0.00in /  0mm 323 W/m2
12:34 50 °F /  10 °C 40.5 °F /  4.7 °C 30.07in /  1018.2hPa West 5.4mph /  8.7km/h 12mph /  19.3km/h 69.6% 0.00in /  0mm 264 W/m2
12:39 50 °F /  10 °C 40.5 °F /  4.7 °C 30.07in /  1018.2hPa WNW 4.7mph /  7.6km/h 8mph /  12.9km/h 69.6% 0.00in /  0mm 297 W/m2
12:44 50.2 °F /  10.1 °C 40.5 °F /  4.7 °C 30.07in /  1018.2hPa WNW 5.2mph /  8.4km/h 11mph /  17.7km/h 69.2% 0.00in /  0mm 311 W/m2
12:48 49.8 °F /  9.9 °C 40.5 °F /  4.7 °C 30.07in /  1018.2hPa West 7.5mph /  12.1km/h 12mph /  19.3km/h 70% 0.00in /  0mm 302 W/m2
12:54 50.1 °F /  10.1 °C 40.6 °F /  4.8 °C 30.07in /  1018.2hPa West 6.4mph /  10.3km/h 12mph /  19.3km/h 69.6% 0.00in /  0mm 740 W/m2
12:59 50.6 °F /  10.3 °C 40.9 °F /  4.9 °C 30.07in /  1018.2hPa West 5.7mph /  9.2km/h 9mph /  14.5km/h 68.8% 0.00in /  0mm 758 W/m2
13:04 50.7 °F /  10.4 °C 41.1 °F /  5.1 °C 30.07in /  1018.2hPa WSW 5.5mph /  8.9km/h 9mph /  14.5km/h 69.2% 0.00in /  0mm 320 W/m2
13:09 51 °F /  10.6 °C 41.5 °F /  5.3 °C 30.07in /  1018.2hPa West 3.5mph /  5.6km/h 11mph /  17.7km/h 69.8% 0.00in /  0mm 345 W/m2
13:14 50.7 °F /  10.4 °C 41.3 °F /  5.2 °C 30.08in /  1018.5hPa WNW 6.3mph /  10.1km/h 12mph /  19.3km/h 69.8% 0.00in /  0mm 341 W/m2
13:19 50.4 °F /  10.2 °C 41.3 °F /  5.2 °C 30.08in /  1018.5hPa West 5.3mph /  8.5km/h 12mph /  19.3km/h 70.6% 0.00in /  0mm 330 W/m2
13:24 50.7 °F /  10.4 °C 41.6 °F /  5.3 °C 30.08in /  1018.5hPa WNW 5.5mph /  8.9km/h 11mph /  17.7km/h 70.4% 0.00in /  0mm 722 W/m2
13:29 51.4 °F /  10.8 °C 41.8 °F /  5.4 °C 30.08in /  1018.5hPa WSW 6.2mph /  10km/h 14mph /  22.5km/h 69.6% 0.00in /  0mm 714 W/m2
13:34 51.3 °F /  10.7 °C 41.7 °F /  5.4 °C 30.08in /  1018.5hPa WSW 9.6mph /  15.4km/h 14mph /  22.5km/h 69.6% 0.00in /  0mm 353 W/m2
13:39 50.9 °F /  10.5 °C 42 °F /  5.6 °C 30.08in /  1018.5hPa WNW 10.1mph /  16.3km/h 14mph /  22.5km/h 71.2% 0.00in /  0mm 367 W/m2
13:44 50.6 °F /  10.3 °C 42.1 °F /  5.6 °C 30.08in /  1018.5hPa West 9.6mph /  15.4km/h 17mph /  27.4km/h 72.2% 0.00in /  0mm 594 W/m2
13:49 50.3 °F /  10.2 °C 41.8 °F /  5.4 °C 30.08in /  1018.5hPa WSW 8.6mph /  13.8km/h 14mph /  22.5km/h 72.4% 0.00in /  0mm 643 W/m2
13:54 50.5 °F /  10.3 °C 42 °F /  5.6 °C 30.08in /  1018.5hPa WSW 7.2mph /  11.6km/h 15mph /  24.1km/h 72.2% 0.00in /  0mm 599 W/m2
13:58 50.6 °F /  10.3 °C 41.7 °F /  5.4 °C 30.08in /  1018.5hPa SW 5.5mph /  8.9km/h 14mph /  22.5km/h 71.3% 0.00in /  0mm 555 W/m2
14:04 51.2 °F /  10.7 °C 42.2 °F /  5.7 °C 30.08in /  1018.5hPa West 7mph /  11.3km/h 13mph /  20.9km/h 71% 0.00in /  0mm 494 W/m2
14:09 50.7 °F /  10.4 °C 41.7 °F /  5.4 °C 30.08in /  1018.5hPa WNW 6.6mph /  10.6km/h 13mph /  20.9km/h 71% 0.00in /  0mm 427 W/m2
14:14 50.2 °F /  10.1 °C 41.2 °F /  5.1 °C 30.08in /  1018.5hPa WSW 8.4mph /  13.5km/h 13mph /  20.9km/h 71% 0.00in /  0mm 599 W/m2
14:19 50.7 °F /  10.4 °C 41.8 °F /  5.4 °C 30.08in /  1018.5hPa West 7mph /  11.3km/h 12mph /  19.3km/h 71.2% 0.00in /  0mm 598 W/m2
14:24 50.6 °F /  10.3 °C 41.6 °F /  5.3 °C 30.08in /  1018.5hPa WSW 6.3mph /  10.1km/h 11mph /  17.7km/h 71% 0.00in /  0mm 290 W/m2
14:29 50.9 °F /  10.5 °C 41.9 °F /  5.5 °C 30.08in /  1018.5hPa WSW 8.2mph /  13.2km/h 12mph /  19.3km/h 71% 0.00in /  0mm 573 W/m2
14:34 50.8 °F /  10.4 °C 41.6 °F /  5.3 °C 30.08in /  1018.5hPa WSW 7.8mph /  12.6km/h 15mph /  24.1km/h 70.4% 0.00in /  0mm 573 W/m2
14:39 51.2 °F /  10.7 °C 41.9 °F /  5.5 °C 30.08in /  1018.5hPa WSW 6.8mph /  10.9km/h 15mph /  24.1km/h 70.2% 0.00in /  0mm 661 W/m2
14:44 51.3 °F /  10.7 °C 41.9 °F /  5.5 °C 30.08in /  1018.5hPa WSW 8mph /  12.9km/h 14mph /  22.5km/h 70% 0.00in /  0mm 601 W/m2
14:49 51.7 °F /  10.9 °C 42.2 °F /  5.7 °C 30.07in /  1018.2hPa West 7.2mph /  11.6km/h 12mph /  19.3km/h 70% 0.00in /  0mm 480 W/m2
14:54 51.4 °F /  10.8 °C 41.9 °F /  5.5 °C 30.07in /  1018.2hPa West 6.8mph /  10.9km/h 11mph /  17.7km/h 69.8% 0.00in /  0mm 452 W/m2
14:59 51.4 °F /  10.8 °C 41.7 °F /  5.4 °C 30.08in /  1018.5hPa WSW 6.7mph /  10.8km/h 12mph /  19.3km/h 69.4% 0.00in /  0mm 510 W/m2
15:04 51.4 °F /  10.8 °C 41.5 °F /  5.3 °C 30.08in /  1018.5hPa WSW 6.4mph /  10.3km/h 12mph /  19.3km/h 68.8% 0.00in /  0mm 466 W/m2
15:09 51.6 °F /  10.9 °C 41.8 °F /  5.4 °C 30.08in /  1018.5hPa West 6mph /  9.7km/h 13mph /  20.9km/h 69.2% 0.00in /  0mm 431 W/m2
15:14 51.4 °F /  10.8 °C 41.4 °F /  5.2 °C 30.08in /  1018.5hPa WSW 5mph /  8km/h 11mph /  17.7km/h 68.8% 0.00in /  0mm 424 W/m2
15:19 52.1 °F /  11.2 °C 42.2 °F /  5.7 °C 30.08in /  1018.5hPa WSW 4.8mph /  7.7km/h 10mph /  16.1km/h 69% 0.00in /  0mm 454 W/m2
15:24 52.3 °F /  11.3 °C 41.8 °F /  5.4 °C 30.08in /  1018.5hPa WSW 4.2mph /  6.8km/h 10mph /  16.1km/h 67.5% 0.00in /  0mm 422 W/m2
15:29 52.1 °F /  11.2 °C 41.5 °F /  5.3 °C 30.07in /  1018.2hPa WSW 5.1mph /  8.2km/h 12mph /  19.3km/h 67.2% 0.00in /  0mm 385 W/m2
15:34 51.8 °F /  11 °C 41.2 °F /  5.1 °C 30.08in /  1018.5hPa WSW 7.3mph /  11.7km/h 14mph /  22.5km/h 67% 0.00in /  0mm 378 W/m2
15:39 51.5 °F /  10.8 °C 41.1 °F /  5.1 °C 30.08in /  1018.5hPa West 7.8mph /  12.6km/h 14mph /  22.5km/h 67.4% 0.00in /  0mm 346 W/m2
15:44 51.5 °F /  10.8 °C 40.7 °F /  4.8 °C 30.08in /  1018.5hPa West 7.2mph /  11.6km/h 14mph /  22.5km/h 66.4% 0.00in /  0mm 350 W/m2
15:49 51.4 °F /  10.8 °C 40.8 °F /  4.9 °C 30.08in /  1018.5hPa West 7.2mph /  11.6km/h 15mph /  24.1km/h 67% 0.00in /  0mm 339 W/m2
15:54 51.5 °F /  10.8 °C 41.2 °F /  5.1 °C 30.08in /  1018.5hPa West 5.6mph /  9km/h 12mph /  19.3km/h 67.8% 0.00in /  0mm 399 W/m2
15:59 51.6 °F /  10.9 °C 41.3 °F /  5.2 °C 30.08in /  1018.5hPa West 8mph /  12.9km/h 16mph /  25.7km/h 67.8% 0.00in /  0mm 482 W/m2
16:04 51.4 °F /  10.8 °C 41 °F /  5 °C 30.08in /  1018.5hPa West 8.6mph /  13.8km/h 16mph /  25.7km/h 67.4% 0.00in /  0mm 468 W/m2
16:09 51.6 °F /  10.9 °C 41.1 °F /  5.1 °C 30.09in /  1018.8hPa West 5.5mph /  8.9km/h 15mph /  24.1km/h 67.2% 0.00in /  0mm 396 W/m2
16:14 51.5 °F /  10.8 °C 41 °F /  5 °C 30.09in /  1018.8hPa West 10mph /  16.1km/h 15mph /  24.1km/h 67.2% 0.00in /  0mm 330 W/m2
16:19 50.7 °F /  10.4 °C 40.4 °F /  4.7 °C 30.09in /  1018.8hPa West 8.2mph /  13.2km/h 14mph /  22.5km/h 67.4% 0.00in /  0mm 118 W/m2
16:24 50.4 °F /  10.2 °C 40.4 °F /  4.7 °C 30.09in /  1018.8hPa WSW 8.4mph /  13.5km/h 15mph /  24.1km/h 68.4% 0.00in /  0mm 156 W/m2
16:29 50.2 °F /  10.1 °C 40.5 °F /  4.7 °C 30.09in /  1018.8hPa West 9.6mph /  15.4km/h 15mph /  24.1km/h 69% 0.00in /  0mm 185 W/m2
16:34 50 °F /  10 °C 40.3 °F /  4.6 °C 30.09in /  1018.8hPa WSW 8.6mph /  13.8km/h 15mph /  24.1km/h 69% 0.00in /  0mm 169 W/m2
16:39 50.1 °F /  10.1 °C 40.7 °F /  4.8 °C 30.09in /  1018.8hPa WSW 5.7mph /  9.2km/h 13mph /  20.9km/h 69.8% 0.00in /  0mm 178 W/m2
16:44 49.9 °F /  9.9 °C 40.4 °F /  4.7 °C 30.09in /  1018.8hPa West 6.2mph /  10km/h 13mph /  20.9km/h 69.6% 0.00in /  0mm 204 W/m2
16:49 50.1 °F /  10.1 °C 40.7 °F /  4.8 °C 30.09in /  1018.8hPa West 6.2mph /  10km/h 12mph /  19.3km/h 70% 0.00in /  0mm 186 W/m2
16:54 49.9 °F /  9.9 °C 40.5 °F /  4.7 °C 30.09in /  1018.8hPa WSW 4.9mph /  7.9km/h 11mph /  17.7km/h 70% 0.00in /  0mm 156 W/m2
16:59 49.9 °F /  9.9 °C 40.6 °F /  4.8 °C 30.09in /  1018.8hPa WSW 5.9mph /  9.5km/h 11mph /  17.7km/h 70% 0.00in /  0mm 120 W/m2
17:04 49.6 °F /  9.8 °C 40.3 °F /  4.6 °C 30.09in /  1018.8hPa West 6.8mph /  10.9km/h 12mph /  19.3km/h 70% 0.00in /  0mm 100 W/m2
17:09 49.1 °F /  9.5 °C 39.7 °F /  4.3 °C 30.09in /  1018.8hPa West 6.8mph /  10.9km/h 14mph /  22.5km/h 70% 0.00in /  0mm 83 W/m2
17:14 48.7 °F /  9.3 °C 39.6 °F /  4.2 °C 30.09in /  1018.8hPa West 7.2mph /  11.6km/h 11mph /  17.7km/h 70.8% 0.00in /  0mm 63 W/m2
17:19 48.5 °F /  9.2 °C 39.5 °F /  4.2 °C 30.10in /  1019.2hPa West 6.2mph /  10km/h 10mph /  16.1km/h 71% 0.00in /  0mm 49 W/m2
17:24 48 °F /  8.9 °C 39.3 °F /  4.1 °C 30.10in /  1019.2hPa West 5.8mph /  9.3km/h 11mph /  17.7km/h 71.6% 0.00in /  0mm 44 W/m2
17:29 47.8 °F /  8.8 °C 39.2 °F /  4 °C 30.10in /  1019.2hPa West 4.3mph /  6.9km/h 9mph /  14.5km/h 72% 0.00in /  0mm 37 W/m2
17:34 47.8 °F /  8.8 °C 39.4 °F /  4.1 °C 30.10in /  1019.2hPa WSW 5.8mph /  9.3km/h 9mph /  14.5km/h 72.6% 0.00in /  0mm 32 W/m2
17:39 47.7 °F /  8.7 °C 39.3 °F /  4.1 °C 30.10in /  1019.2hPa West 5.2mph /  8.4km/h 9mph /  14.5km/h 73% 0.00in /  0mm 26 W/m2
17:44 47.4 °F /  8.6 °C 39.1 °F /  3.9 °C 30.10in /  1019.2hPa West 4.3mph /  6.9km/h 9mph /  14.5km/h 73% 0.00in /  0mm 23 W/m2
17:49 47.2 °F /  8.4 °C 39.1 °F /  3.9 °C 30.10in /  1019.2hPa West 4.5mph /  7.2km/h 8mph /  12.9km/h 73.4% 0.00in /  0mm 19 W/m2
17:54 47.1 °F /  8.4 °C 39.2 °F /  4 °C 30.10in /  1019.2hPa West 5.6mph /  9km/h 9mph /  14.5km/h 74% 0.00in /  0mm 16 W/m2
17:59 46.9 °F /  8.3 °C 39 °F /  3.9 °C 30.10in /  1019.2hPa WSW 4.5mph /  7.2km/h 7mph /  11.3km/h 74% 0.00in /  0mm 14 W/m2
18:04 46.8 °F /  8.2 °C 38.7 °F /  3.7 °C 30.10in /  1019.2hPa WSW 4.4mph /  7.1km/h 9mph /  14.5km/h 73.6% 0.00in /  0mm 9 W/m2
18:09 46.6 °F /  8.1 °C 38.5 °F /  3.6 °C 30.10in /  1019.2hPa West 5.2mph /  8.4km/h 12mph /  19.3km/h 73% 0.00in /  0mm 7 W/m2
18:14 46.3 °F /  7.9 °C 38.2 °F /  3.4 °C 30.10in /  1019.2hPa West 4.8mph /  7.7km/h 9mph /  14.5km/h 73% 0.00in /  0mm 5 W/m2
18:19 46.1 °F /  7.8 °C 38.2 °F /  3.4 °C 30.10in /  1019.2hPa West 4.5mph /  7.2km/h 9mph /  14.5km/h 73.4% 0.00in /  0mm 0 W/m2
18:24 46 °F /  7.8 °C 38.2 °F /  3.4 °C 30.10in /  1019.2hPa West 3.6mph /  5.8km/h 8mph /  12.9km/h 74% 0.00in /  0mm 0 W/m2
18:29 45.9 °F /  7.7 °C 38.3 °F /  3.5 °C 30.10in /  1019.2hPa WSW 4.2mph /  6.8km/h 9mph /  14.5km/h 74.4% 0.00in /  0mm 0 W/m2
18:34 45.9 °F /  7.7 °C 38.3 °F /  3.5 °C 30.11in /  1019.5hPa WSW 4.9mph /  7.9km/h 8mph /  12.9km/h 75% 0.00in /  0mm 0 W/m2
18:39 45.7 °F /  7.6 °C 38.3 °F /  3.5 °C 30.11in /  1019.5hPa West 4.8mph /  7.7km/h 10mph /  16.1km/h 75% 0.00in /  0mm 0 W/m2
18:44 45.7 °F /  7.6 °C 38.4 °F /  3.6 °C 30.11in /  1019.5hPa West 3.5mph /  5.6km/h 8mph /  12.9km/h 75.5% 0.00in /  0mm 0 W/m2
18:49 45.6 °F /  7.6 °C 38.4 °F /  3.6 °C 30.11in /  1019.5hPa West 5.8mph /  9.3km/h 10mph /  16.1km/h 76% 0.00in /  0mm 0 W/m2
18:54 45.5 °F /  7.5 °C 38.4 °F /  3.6 °C 30.12in /  1019.9hPa West 4.3mph /  6.9km/h 11mph /  17.7km/h 76.2% 0.00in /  0mm 0 W/m2
18:59 45.4 °F /  7.4 °C 38.6 °F /  3.7 °C 30.11in /  1019.5hPa West 2.4mph /  3.9km/h 7mph /  11.3km/h 77% 0.00in /  0mm 0 W/m2
19:04 45.3 °F /  7.4 °C 38.5 °F /  3.6 °C 30.11in /  1019.5hPa West 3.7mph /  6km/h 6mph /  9.7km/h 77% 0.00in /  0mm 0 W/m2
19:09 45.3 °F /  7.4 °C 38.5 °F /  3.6 °C 30.10in /  1019.2hPa West 3.2mph /  5.1km/h 6mph /  9.7km/h 77% 0.00in /  0mm 0 W/m2
19:14 45.2 °F /  7.3 °C 38.6 °F /  3.7 °C 30.11in /  1019.5hPa West 3.1mph /  5km/h 8mph /  12.9km/h 77.6% 0.00in /  0mm 0 W/m2
19:19 45.1 °F /  7.3 °C 38.7 °F /  3.7 °C 30.11in /  1019.5hPa West 3.6mph /  5.8km/h 6mph /  9.7km/h 78% 0.00in /  0mm 0 W/m2
19:24 45.1 °F /  7.3 °C 38.7 °F /  3.7 °C 30.11in /  1019.5hPa West 4.4mph /  7.1km/h 7mph /  11.3km/h 78% 0.00in /  0mm 0 W/m2
19:29 45 °F /  7.2 °C 38.6 °F /  3.7 °C 30.10in /  1019.2hPa WSW 4mph /  6.4km/h 6mph /  9.7km/h 78% 0.00in /  0mm 0 W/m2
19:34 45 °F /  7.2 °C 38.5 °F /  3.6 °C 30.11in /  1019.5hPa West 5.3mph /  8.5km/h 10mph /  16.1km/h 78% 0.00in /  0mm 0 W/m2
19:39 45 °F /  7.2 °C 38.5 °F /  3.6 °C 30.11in /  1019.5hPa West 4.2mph /  6.8km/h 12mph /  19.3km/h 78% 0.00in /  0mm 0 W/m2
19:44 45 °F /  7.2 °C 38.5 °F /  3.6 °C 30.10in /  1019.2hPa West 5.3mph /  8.5km/h 9mph /  14.5km/h 78% 0.00in /  0mm 0 W/m2
19:49 44.9 °F /  7.2 °C 38.5 °F /  3.6 °C 30.11in /  1019.5hPa West 4.8mph /  7.7km/h 9mph /  14.5km/h 78.2% 0.00in /  0mm 0 W/m2
19:54 44.8 °F /  7.1 °C 38.7 °F /  3.7 °C 30.11in /  1019.5hPa West 5.2mph /  8.4km/h 10mph /  16.1km/h 79% 0.00in /  0mm 0 W/m2
19:59 44.8 °F /  7.1 °C 38.7 °F /  3.7 °C 30.10in /  1019.2hPa West 5.5mph /  8.9km/h 10mph /  16.1km/h 79% 0.00in /  0mm 0 W/m2
20:04 44.8 °F /  7.1 °C 38.7 °F /  3.7 °C 30.11in /  1019.5hPa West 5.2mph /  8.4km/h 9mph /  14.5km/h 79% 0.00in /  0mm 0 W/m2
20:09 44.8 °F /  7.1 °C 38.7 °F /  3.7 °C 30.11in /  1019.5hPa West 4.9mph /  7.9km/h 11mph /  17.7km/h 79% 0.00in /  0mm 0 W/m2
20:14 44.8 °F /  7.1 °C 38.7 °F /  3.7 °C 30.11in /  1019.5hPa West 4.3mph /  6.9km/h 11mph /  17.7km/h 79% 0.00in /  0mm 0 W/m2
20:19 44.8 °F /  7.1 °C 38.7 °F /  3.7 °C 30.11in /  1019.5hPa West 3.5mph /  5.6km/h 6mph /  9.7km/h 79% 0.00in /  0mm 0 W/m2
20:24 44.8 °F /  7.1 °C 38.7 °F /  3.7 °C 30.11in /  1019.5hPa West 4.6mph /  7.4km/h 9mph /  14.5km/h 79% 0.00in /  0mm 0 W/m2
20:29 44.8 °F /  7.1 °C 39 °F /  3.9 °C 30.11in /  1019.5hPa West 4.2mph /  6.8km/h 7mph /  11.3km/h 80% 0.00in /  0mm 0 W/m2
20:34 44.8 °F /  7.1 °C 39 °F /  3.9 °C 30.11in /  1019.5hPa West 5.2mph /  8.4km/h 9mph /  14.5km/h 80% 0.00in /  0mm 0 W/m2
20:39 44.8 °F /  7.1 °C 39 °F /  3.9 °C 30.11in /  1019.5hPa WSW 4.3mph /  6.9km/h 8mph /  12.9km/h 80% 0.00in /  0mm 0 W/m2
20:44 44.8 °F /  7.1 °C 39 °F /  3.9 °C 30.11in /  1019.5hPa WSW 2.3mph /  3.7km/h 7mph /  11.3km/h 80% 0.00in /  0mm 0 W/m2
20:49 44.8 °F /  7.1 °C 39 °F /  3.9 °C 30.11in /  1019.5hPa West 2.8mph /  4.5km/h 6mph /  9.7km/h 80% 0.00in /  0mm 0 W/m2
20:54 44.8 °F /  7.1 °C 39 °F /  3.9 °C 30.11in /  1019.5hPa West 3.8mph /  6.1km/h 6mph /  9.7km/h 80% 0.00in /  0mm 0 W/m2
20:59 44.8 °F /  7.1 °C 39 °F /  3.9 °C 30.11in /  1019.5hPa West 3.2mph /  5.1km/h 7mph /  11.3km/h 80% 0.00in /  0mm 0 W/m2
21:04 44.8 °F /  7.1 °C 39 °F /  3.9 °C 30.11in /  1019.5hPa West 3.5mph /  5.6km/h 6mph /  9.7km/h 80% 0.00in /  0mm 0 W/m2
21:09 44.8 °F /  7.1 °C 39 °F /  3.9 °C 30.11in /  1019.5hPa West 3.7mph /  6km/h 6mph /  9.7km/h 80% 0.00in /  0mm 0 W/m2
21:14 44.8 °F /  7.1 °C 39 °F /  3.9 °C 30.11in /  1019.5hPa West 3.1mph /  5km/h 6mph /  9.7km/h 80% 0.00in /  0mm 0 W/m2
21:19 44.8 °F /  7.1 °C 39 °F /  3.9 °C 30.11in /  1019.5hPa West 2.8mph /  4.5km/h 5mph /  8km/h 80% 0.00in /  0mm 0 W/m2
21:24 44.8 °F /  7.1 °C 39 °F /  3.9 °C 30.11in /  1019.5hPa West 2.1mph /  3.4km/h 6mph /  9.7km/h 80% 0.00in /  0mm 0 W/m2
21:29 44.7 °F /  7.1 °C 39.1 °F /  3.9 °C 30.11in /  1019.5hPa West 3.4mph /  5.5km/h 6mph /  9.7km/h 80.6% 0.00in /  0mm 0 W/m2
21:34 44.6 °F /  7 °C 39.2 °F /  4 °C 30.11in /  1019.5hPa WSW 3.3mph /  5.3km/h 6mph /  9.7km/h 81% 0.00in /  0mm 0 W/m2
21:39 44.6 °F /  7 °C 39.2 °F /  4 °C 30.11in /  1019.5hPa West 1.8mph /  2.9km/h 3mph /  4.8km/h 81% 0.00in /  0mm 0 W/m2
21:44 44.7 °F /  7.1 °C 39.3 °F /  4.1 °C 30.11in /  1019.5hPa West 1.4mph /  2.3km/h 3mph /  4.8km/h 81% 0.00in /  0mm 0 W/m2
21:49 44.6 °F /  7 °C 39.2 °F /  4 °C 30.10in /  1019.2hPa West 1.6mph /  2.6km/h 4mph /  6.4km/h 81% 0.00in /  0mm 0 W/m2
21:54 44.7 °F /  7.1 °C 39.3 °F /  4.1 °C 30.10in /  1019.2hPa West 0.4mph /  0.6km/h 3mph /  4.8km/h 81% 0.00in /  0mm 0 W/m2
21:59 44.6 °F /  7 °C 39.2 °F /  4 °C 30.10in /  1019.2hPa West 0.9mph /  1.4km/h 2mph /  3.2km/h 81% 0.00in /  0mm 0 W/m2
22:04 44.6 °F /  7 °C 39.2 °F /  4 °C 30.10in /  1019.2hPa West 0.2mph /  0.3km/h 1mph /  1.6km/h 81% 0.00in /  0mm 0 W/m2
22:09 44.5 °F /  6.9 °C 39.2 °F /  4 °C 30.10in /  1019.2hPa Calm     81.4% 0.00in /  0mm 0 W/m2
22:14 44.6 °F /  7 °C 39.4 °F /  4.1 °C 30.10in /  1019.2hPa Calm     82% 0.00in /  0mm 0 W/m2
22:19 44.6 °F /  7 °C 39.3 °F /  4.1 °C 30.10in /  1019.2hPa Calm   1mph /  1.6km/h 82% 0.00in /  0mm 0 W/m2
22:24 44.6 °F /  7 °C 39.4 °F /  4.1 °C 30.10in /  1019.2hPa Calm   1mph /  1.6km/h 82% 0.00in /  0mm 0 W/m2
22:29 44.6 °F /  7 °C 39.4 °F /  4.1 °C 30.10in /  1019.2hPa Calm     82% 0.00in /  0mm 0 W/m2
22:34 44.7 °F /  7.1 °C 39.5 °F /  4.2 °C 30.10in /  1019.2hPa Calm     82% 0.00in /  0mm 0 W/m2
22:39 44.8 °F /  7.1 °C 39.6 °F /  4.2 °C 30.09in /  1018.8hPa West 0.4mph /  0.6km/h 3mph /  4.8km/h 82% 0.00in /  0mm 0 W/m2
22:44 44.7 °F /  7.1 °C 39.5 °F /  4.2 °C 30.09in /  1018.8hPa West 0.5mph /  0.8km/h 3mph /  4.8km/h 82% 0.00in /  0mm 0 W/m2
22:49 44.8 °F /  7.1 °C 39.6 °F /  4.2 °C 30.09in /  1018.8hPa West 0.2mph /  0.3km/h 2mph /  3.2km/h 82% 0.00in /  0mm 0 W/m2
22:54 44.8 °F /  7.1 °C 39.4 °F /  4.1 °C 30.09in /  1018.8hPa West 0.2mph /  0.3km/h 1mph /  1.6km/h 81.2% 0.00in /  0mm 0 W/m2
22:59 44.8 °F /  7.1 °C 39.4 °F /  4.1 °C 30.09in /  1018.8hPa WSW 0.8mph /  1.3km/h 5mph /  8km/h 81% 0.00in /  0mm 0 W/m2
23:04 44.9 °F /  7.2 °C 39.5 °F /  4.2 °C 30.09in /  1018.8hPa WSW 1.5mph /  2.4km/h 5mph /  8km/h 81% 0.00in /  0mm 0 W/m2
23:09 44.9 °F /  7.2 °C 39.5 °F /  4.2 °C 30.09in /  1018.8hPa WSW 0.9mph /  1.4km/h 4mph /  6.4km/h 81% 0.00in /  0mm 0 W/m2
23:14 44.9 °F /  7.2 °C 39.5 °F /  4.2 °C 30.09in /  1018.8hPa WSW 0.6mph /  1km/h 4mph /  6.4km/h 81% 0.00in /  0mm 0 W/m2
23:19 44.8 °F /  7.1 °C 39.4 °F /  4.1 °C 30.09in /  1018.8hPa WSW 2mph /  3.2km/h 3mph /  4.8km/h 81% 0.00in /  0mm 0 W/m2
23:24 44.8 °F /  7.1 °C 39.4 °F /  4.1 °C 30.09in /  1018.8hPa WSW 2.2mph /  3.5km/h 3mph /  4.8km/h 81% 0.00in /  0mm 0 W/m2
23:29 44.8 °F /  7.1 °C 39.4 °F /  4.1 °C 30.09in /  1018.8hPa WSW 1.1mph /  1.8km/h 3mph /  4.8km/h 81% 0.00in /  0mm 0 W/m2
23:34 44.6 °F /  7 °C 39.4 °F /  4.1 °C 30.08in /  1018.5hPa Calm   2mph /  3.2km/h 82% 0.00in /  0mm 0 W/m2
23:39 44.6 °F /  7 °C 39.4 °F /  4.1 °C 30.09in /  1018.8hPa Calm     82% 0.00in /  0mm 0 W/m2
23:44 44.6 °F /  7 °C 39.4 °F /  4.1 °C 30.08in /  1018.5hPa Calm     82% 0.00in /  0mm 0 W/m2
23:49 44.6 °F /  7 °C 39.4 °F /  4.1 °C 30.09in /  1018.8hPa Calm   1mph /  1.6km/h 82% 0.00in /  0mm 0 W/m2
23:54 44.8 °F /  7.1 °C 39.6 °F /  4.2 °C 30.09in /  1018.8hPa WSW 0.2mph /  0.3km/h 1mph /  1.6km/h 82% 0.00in /  0mm 0 W/m2
23:59 44.8 °F /  7.1 °C 39.6 °F /  4.2 °C 30.09in /  1018.8hPa WSW 0.9mph /  1.4km/h 2mph /  3.2km/h 82% 0.00in /  0mm 0 W/m2
Bath Spa Weather
Compliments of Weather Underground - 2 mb